Bookmark and Share
Track history (hours):
 

Vernon C. Smith (vcs)

More information available from US FCC via Universal Licensing System and Coast Guard Vessel Documentation Center.

Last reported at 2012-Jul-16 11:33 UTC. Time now 2014-Apr-24 11:27 UTC.
Position N 38°38' W 083°20'.
Warning: this ship's position is years out of date!

Length 51 m; draft 2.5 m.

Type: Towing. MMSI: 366967570.

NotesDate/timePositionNaut miles runAvg speedWind from/ knotsBaromVisibWave heightAir tempDewpointWater temp
2012-Jul-16 11:33N 38°38' W 083°20'22 2.7
2012-Jul-16 03:26N 38°42' W 083°47'18 3.0
2012-Jul-15 21:29N 38°47' W 084°09'2 2.2
2012-Jul-15 20:24N 38°48' W 084°12'4 5.0
2012-Jul-15 19:33N 38°52' W 084°14'1 0.5
2012-Jul-15 18:32N 38°52' W 084°14'0 0.2
2012-Jul-15 17:33N 38°53' W 084°14'0 0.1
2012-Jul-15 16:33N 38°53' W 084°14'0 0.1
2012-Jul-15 15:25N 38°53' W 084°14'0 0.0
2012-Jul-15 14:30N 38°53' W 084°14'0 0.0
2012-Jul-15 13:29N 38°53' W 084°14'0 0.3
2012-Jul-15 12:33N 38°53' W 084°14'6 5.7
2012-Jul-15 11:33N 38°58' W 084°18'1 1.5
2012-Jul-15 10:35N 38°59' W 084°18'6 6.0
2012-Jul-15 09:33N 39°03' W 084°24'5 5.5
2012-Jul-15 08:33N 39°07' W 084°29'6 6.1
2012-Jul-15 07:33N 39°04' W 084°36'6 6.4
2012-Jul-15 06:33N 39°08' W 084°43'4 4.3
2012-Jul-15 05:33N 39°07' W 084°48'0 0.4
2012-Jul-15 04:34N 39°07' W 084°48'0 0.1
2012-Jul-15 03:31N 39°07' W 084°48'0 0.2
2012-Jul-15 02:28N 39°07' W 084°48'3 3.0
2012-Jul-15 01:33N 39°09' W 084°45'5 5.5
2012-Jul-15 00:33N 39°06' W 084°39'5 4.9
2012-Jul-14 23:33N 39°06' W 084°33'5 4.6
2012-Jul-14 22:33N 39°07' W 084°27'5 5.1
2012-Jul-14 21:33N 39°03' W 084°24'5 5.4
2012-Jul-14 20:33N 39°00' W 084°18'0 0.1
2012-Jul-14 19:33N 38°60' W 084°18'0 0.1
2012-Jul-14 18:33N 38°60' W 084°18'3 2.7
2012-Jul-14 17:33N 38°57' W 084°17'5 4.9
2012-Jul-14 16:33N 38°53' W 084°14'5 4.9
2012-Jul-14 15:33N 38°48' W 084°13'  

Dump ship's entire track history

sailing weather and tide predictions

Vernon C. Smith (vcs) — WDB8993 — position and weather